Time;durP1;ratioP1;P1;durP2;ratioP2;P2;SDS_P1;SDS_P2;PMS_P1;PMS_P2;Temp;Humidity;BMP_temperature;BMP_pressure;BME280_temperature;BME280_humidity;BME280_pressure;Samples;Min_cycle;Max_cycle;Signal;HPM_P1;HPM_P2
2022/04/14 00:00:30;;;;;;;;;;;;;;;20.20;49.09;102023.56;5044270;28;20387;-76
2022/04/14 00:02:56;;;;;;;;;;;;;;;20.21;48.67;102017.03;5051406;28;20019;-74
2022/04/14 00:05:21;;;;;;;;;;;;;;;20.12;48.76;102010.38;5052664;28;20412;-75
2022/04/14 00:07:47;;;;;;;;;;;;;;;20.06;49.18;102014.97;5053059;28;19979;-74
2022/04/14 00:10:13;;;;;;;;;;;;;;;20.32;48.50;102016.03;5051331;28;20035;-76
2022/04/14 00:12:39;;;;;;;;;;;;;;;20.42;48.13;102012.56;5051220;28;19916;-76
2022/04/14 00:15:05;;;;;;;;;;;;;;;20.33;47.63;102011.38;5050653;28;19967;-76
2022/04/14 00:17:32;;;;;;;;;;;;;;;20.35;48.05;102009.19;5053805;28;19967;-75
2022/04/14 00:19:57;;;;;;;;;;;;;;;20.21;48.36;102006.09;5054159;28;19913;-75
2022/04/14 00:22:23;;;;;;;;;;;;;;;20.33;47.98;102014.94;5058022;28;19927;-76
2022/04/14 00:24:48;;;;;;;;;;;;;;;20.15;48.14;101997.00;5056159;28;19924;-75
2022/04/14 00:27:16;;;;;;;;;;;;;;;20.14;48.21;101994.56;5056576;28;20011;-76
2022/04/14 00:29:41;;;;;;;;;;;;;;;20.25;47.90;101995.47;5056045;28;19917;-74
2022/04/14 00:32:07;;;;;;;;;;;;;;;20.08;47.46;101993.69;5054645;28;20379;-76
2022/04/14 00:34:32;;;;;;;;;;;;;;;20.34;47.15;101991.19;5055458;28;20404;-74
2022/04/14 00:36:58;;;;;;;;;;;;;;;20.16;47.61;101986.94;5055278;28;19920;-77
2022/04/14 00:39:23;;;;;;;;;;;;;;;20.20;47.52;101988.09;5045631;28;19924;-77
2022/04/14 00:41:48;;;;;;;;;;;;;;;20.03;47.88;101990.91;5039393;28;19982;-77
2022/04/14 00:44:13;;;;;;;;;;;;;;;20.11;48.13;101992.31;5036061;28;19932;-76
2022/04/14 00:46:39;;;;;;;;;;;;;;;20.08;48.61;101987.41;5035998;28;20003;-74
2022/04/14 00:49:04;;;;;;;;;;;;;;;19.99;48.83;101989.78;5033847;28;19960;-77
2022/04/14 00:51:29;;;;;;;;;;;;;;;20.08;48.13;101992.88;5033824;28;19963;-77
2022/04/14 00:53:54;;;;;;;;;;;;;;;19.72;49.73;101988.16;5066863;28;20312;-75
2022/04/14 00:56:19;;;;;;;;;;;;;;;19.92;48.09;101977.44;5043496;28;20354;-76
2022/04/14 00:58:45;;;;;;;;;;;;;;;19.85;48.13;101976.84;5054024;28;20352;-75
2022/04/14 01:01:12;;;;;;;;;;;;;;;19.94;48.06;101978.84;5054513;28;19916;-75
2022/04/14 01:03:37;;;;;;;;;;;;;;;19.90;47.48;101985.06;5055691;28;19921;-77
2022/04/14 01:06:03;;;;;;;;;;;;;;;19.92;47.88;101981.00;5055762;28;19923;-76
2022/04/14 01:08:29;;;;;;;;;;;;;;;19.86;47.86;101984.75;5055342;28;19924;-76
2022/04/14 01:10:55;;;;;;;;;;;;;;;19.78;48.00;101989.84;5055325;28;19909;-76
2022/04/14 01:13:21;;;;;;;;;;;;;;;19.68;47.44;101987.84;5055984;28;19913;-76
2022/04/14 01:15:47;;;;;;;;;;;;;;;19.61;47.70;101981.78;5054661;28;19917;-77
2022/04/14 01:18:13;;;;;;;;;;;;;;;19.77;47.76;101993.69;5054659;28;19924;-75
2022/04/14 01:20:39;;;;;;;;;;;;;;;19.72;47.38;101994.44;5055535;28;19917;-77
2022/04/14 01:23:07;;;;;;;;;;;;;;;19.69;47.55;101988.69;5058571;28;19916;-77
2022/04/14 01:25:34;;;;;;;;;;;;;;;19.62;47.15;101986.16;5056255;28;19917;-75
2022/04/14 01:28:00;;;;;;;;;;;;;;;19.63;47.38;101986.97;5056365;28;20004;-75
2022/04/14 01:30:25;;;;;;;;;;;;;;;19.56;47.51;102000.81;5056956;28;20340;-76
2022/04/14 01:32:50;;;;;;;;;;;;;;;19.46;47.69;101999.88;5054726;28;19924;-76
2022/04/14 01:35:17;;;;;;;;;;;;;;;19.52;47.30;101994.22;5055243;28;19923;-76
2022/04/14 01:37:42;;;;;;;;;;;;;;;19.56;48.01;101994.53;5059356;28;19986;-77
2022/04/14 01:40:08;;;;;;;;;;;;;;;19.55;47.27;101993.72;5054348;28;19960;-75
2022/04/14 01:42:33;;;;;;;;;;;;;;;19.54;47.46;101992.06;5054130;28;19916;-76
2022/04/14 01:44:58;;;;;;;;;;;;;;;19.49;47.29;101997.47;5052739;28;20407;-77
2022/04/14 01:47:24;;;;;;;;;;;;;;;19.39;47.45;102004.69;5055249;28;19913;-76
2022/04/14 01:49:49;;;;;;;;;;;;;;;19.38;47.29;102001.13;5057009;28;19923;-78
2022/04/14 01:52:14;;;;;;;;;;;;;;;19.31;47.14;102000.50;5053783;28;20360;-77
2022/04/14 01:54:39;;;;;;;;;;;;;;;19.26;47.95;101997.72;5054116;28;19916;-77
2022/04/14 01:57:05;;;;;;;;;;;;;;;19.28;47.90;101999.09;5054182;28;19920;-76
2022/04/14 01:59:30;;;;;;;;;;;;;;;19.37;47.28;101996.78;5054192;28;19997;-76
2022/04/14 02:01:55;;;;;;;;;;;;;;;19.39;48.09;102001.97;5053657;28;19931;-77
2022/04/14 02:04:20;;;;;;;;;;;;;;;19.13;48.98;101998.91;5054367;28;20377;-76
2022/04/14 02:06:46;;;;;;;;;;;;;;;19.33;47.38;101994.81;5053841;28;19959;-76
2022/04/14 02:09:12;;;;;;;;;;;;;;;19.34;46.92;102010.09;5051772;28;20376;-76
2022/04/14 02:11:37;;;;;;;;;;;;;;;19.29;47.32;102008.09;5053871;28;19954;-77
2022/04/14 02:14:02;;;;;;;;;;;;;;;19.30;47.28;102007.84;5054926;28;19912;-76
2022/04/14 02:16:46;;;;;;;;;;;;;;;19.23;47.22;102007.22;5054857;28;19909;-77
2022/04/14 02:19:11;;;;;;;;;;;;;;;19.16;48.01;102003.03;5055670;28;20335;-76
2022/04/14 02:21:36;;;;;;;;;;;;;;;19.01;48.22;102002.84;5056330;28;20012;-76
2022/04/14 02:24:03;;;;;;;;;;;;;;;19.13;48.07;102011.72;5057206;28;20301;-76
2022/04/14 02:26:28;;;;;;;;;;;;;;;19.08;48.20;102011.66;5059288;28;19922;-74
2022/04/14 02:28:54;;;;;;;;;;;;;;;19.14;47.62;102008.72;5055035;28;19924;-76
2022/04/14 02:31:19;;;;;;;;;;;;;;;19.11;47.83;102011.97;5055344;28;19917;-76
2022/04/14 02:33:44;;;;;;;;;;;;;;;19.15;47.91;102012.28;5053727;28;19923;-76
2022/04/14 02:36:10;;;;;;;;;;;;;;;19.08;47.72;102011.66;5052907;28;19917;-78
2022/04/14 02:38:35;;;;;;;;;;;;;;;19.00;48.18;102003.91;5055445;28;20311;-76
2022/04/14 02:41:00;;;;;;;;;;;;;;;18.72;50.40;102004.06;5062729;28;20020;-76
2022/04/14 02:43:25;;;;;;;;;;;;;;;18.95;48.06;102001.94;5070901;28;20355;-76
2022/04/14 02:48:54;;;;;;;;;;;;;;;18.98;47.96;102009.63;5065023;28;19986;-76
2022/04/14 02:51:19;;;;;;;;;;;;;;;18.91;48.61;102008.97;5066388;28;20368;-76
2022/04/14 02:53:44;;;;;;;;;;;;;;;18.93;48.29;102011.44;5066602;28;19923;-76
2022/04/14 02:56:10;;;;;;;;;;;;;;;18.96;48.71;102011.78;5057795;28;19920;-76
2022/04/14 02:58:37;;;;;;;;;;;;;;;19.07;48.21;102013.56;5062715;28;20159;-74
2022/04/14 03:01:30;;;;;;;;;;;;;;;18.88;48.53;102011.38;5059058;28;19967;-75
2022/04/14 03:03:55;;;;;;;;;;;;;;;18.90;48.48;102018.25;5054468;28;20261;-75
2022/04/14 03:06:21;;;;;;;;;;;;;;;18.73;49.02;102022.06;5058705;28;19956;-76
2022/04/14 03:08:46;;;;;;;;;;;;;;;18.57;49.31;102029.19;5060601;28;19921;-78
2022/04/14 03:11:12;;;;;;;;;;;;;;;18.72;49.17;102021.25;5059255;28;20335;-75
2022/04/14 03:13:38;;;;;;;;;;;;;;;18.67;49.21;102020.34;5056014;28;19909;-75
2022/04/14 03:16:16;;;;;;;;;;;;;;;18.49;48.39;102020.59;5059913;28;19916;-76
2022/04/14 03:18:41;;;;;;;;;;;;;;;18.46;48.63;102021.91;5061504;28;19913;-76
2022/04/14 03:21:06;;;;;;;;;;;;;;;18.40;48.44;102021.00;5063136;28;19966;-75
2022/04/14 03:23:31;;;;;;;;;;;;;;;18.44;48.63;102023.25;5056559;28;19917;-75
2022/04/14 03:25:57;;;;;;;;;;;;;;;18.54;48.16;102029.66;5055863;28;19962;-76
2022/04/14 03:28:22;;;;;;;;;;;;;;;18.40;48.52;102022.88;5055773;28;20323;-74
2022/04/14 03:30:47;;;;;;;;;;;;;;;18.40;48.53;102017.44;5052761;28;19962;-76
2022/04/14 03:33:31;;;;;;;;;;;;;;;18.34;47.90;102013.81;5052153;28;19971;-75
2022/04/14 03:35:57;;;;;;;;;;;;;;;18.44;47.97;102020.53;5052747;28;19975;-74
2022/04/14 03:38:22;;;;;;;;;;;;;;;18.34;47.56;102013.81;5052662;28;19917;-76
2022/04/14 03:40:47;;;;;;;;;;;;;;;18.34;48.68;102008.38;5054320;28;19973;-75
2022/04/14 03:43:12;;;;;;;;;;;;;;;18.36;47.40;102016.28;5055146;28;19995;-75
2022/04/14 03:45:38;;;;;;;;;;;;;;;18.25;48.70;102007.16;5054187;28;19924;-76
2022/04/14 03:48:03;;;;;;;;;;;;;;;18.22;48.30;102015.00;5052328;28;20442;-74
2022/04/14 03:50:29;;;;;;;;;;;;;;;18.16;47.60;102011.34;5052916;28;20008;-75
2022/04/14 03:52:54;;;;;;;;;;;;;;;18.08;47.44;102009.03;5055358;28;19912;-74
2022/04/14 03:55:19;;;;;;;;;;;;;;;18.03;48.64;102008.13;5055936;28;19909;-75
2022/04/14 03:57:44;;;;;;;;;;;;;;;17.99;47.55;102006.94;5060502;28;20031;-75
2022/04/14 04:00:10;;;;;;;;;;;;;;;17.98;48.94;102011.59;5053816;28;20233;-75
2022/04/14 04:02:54;;;;;;;;;;;;;;;17.99;49.65;102018.66;5057918;28;19928;-75
2022/04/14 04:05:19;;;;;;;;;;;;;;;18.05;48.96;102020.41;5055418;28;19913;-75
2022/04/14 04:07:44;;;;;;;;;;;;;;;18.21;50.15;102026.94;5058541;28;20356;-76
2022/04/14 04:10:09;;;;;;;;;;;;;;;18.15;49.12;102022.47;5055976;28;19917;-75
2022/04/14 04:12:35;;;;;;;;;;;;;;;18.13;48.66;102028.16;5058111;28;19921;-75
2022/04/14 04:15:01;;;;;;;;;;;;;;;18.05;48.57;102022.28;5056548;28;19912;-76
2022/04/14 04:17:27;;;;;;;;;;;;;;;17.97;48.60;102028.97;5053377;28;19924;-75
2022/04/14 04:19:52;;;;;;;;;;;;;;;17.88;48.93;102027.72;5052055;28;19913;-74
2022/04/14 04:22:17;;;;;;;;;;;;;;;17.81;49.13;102028.94;5057711;28;20015;-75
2022/04/14 04:24:42;;;;;;;;;;;;;;;17.83;49.34;102024.91;5057059;28;19921;-75
2022/04/14 04:27:08;;;;;;;;;;;;;;;17.81;48.67;102024.31;5053040;28;19916;-75
2022/04/14 04:29:34;;;;;;;;;;;;;;;17.83;49.22;102022.19;5052564;28;19924;-75
2022/04/14 04:31:59;;;;;;;;;;;;;;;17.75;49.07;102024.50;5052365;28;20019;-76
2022/04/14 04:34:24;;;;;;;;;;;;;;;17.59;49.00;102036.97;5054682;28;19905;-75
2022/04/14 04:36:49;;;;;;;;;;;;;;;17.74;48.98;102030.97;5061105;28;19916;-76
2022/04/14 04:39:15;;;;;;;;;;;;;;;17.98;48.53;102040.69;5061747;28;19959;-76
2022/04/14 04:41:40;;;;;;;;;;;;;;;17.97;48.69;102039.84;5058083;28;19951;-75
2022/04/14 04:44:05;;;;;;;;;;;;;;;18.03;48.59;102038.88;5056114;28;19960;-75
2022/04/14 04:46:31;;;;;;;;;;;;;;;18.13;48.52;102032.78;5054810;28;20326;-76
2022/04/14 04:48:57;;;;;;;;;;;;;;;18.21;48.64;102033.19;5060086;28;19972;-75
2022/04/14 04:51:22;;;;;;;;;;;;;;;18.18;48.35;102033.69;5054438;28;19918;-76
2022/04/14 04:53:48;;;;;;;;;;;;;;;18.29;48.60;102040.97;5054683;28;19997;-76
2022/04/14 04:56:13;;;;;;;;;;;;;;;17.94;48.43;102044.97;5053979;28;20303;-75
2022/04/14 04:58:38;;;;;;;;;;;;;;;17.97;48.12;102050.72;5053708;28;19924;-75
2022/04/14 05:01:03;;;;;;;;;;;;;;;17.88;48.19;102054.91;5054557;28;19923;-76
2022/04/14 05:03:48;;;;;;;;;;;;;;;17.55;47.95;102052.09;5057130;28;20028;-75
2022/04/14 05:06:13;;;;;;;;;;;;;;;17.58;49.53;102048.06;5063965;28;19916;-76
2022/04/14 05:08:39;;;;;;;;;;;;;;;17.54;48.94;102048.56;5056303;28;19966;-75
2022/04/14 05:11:04;;;;;;;;;;;;;;;17.53;49.54;102049.59;5055727;28;20268;-75
2022/04/14 05:13:29;;;;;;;;;;;;;;;17.55;50.03;102054.81;5048852;28;19913;-76
2022/04/14 05:15:54;;;;;;;;;;;;;;;17.88;48.72;102057.66;5050783;28;20019;-75
2022/04/14 05:18:20;;;;;;;;;;;;;;;17.69;50.68;102058.88;5054253;28;20361;-75
2022/04/14 05:20:45;;;;;;;;;;;;;;;17.87;49.73;102055.97;5055105;28;19959;-74
2022/04/14 05:23:10;;;;;;;;;;;;;;;17.91;49.37;102051.69;5053357;28;19928;-73
2022/04/14 05:25:36;;;;;;;;;;;;;;;17.84;48.46;102061.09;5053200;28;19927;-74
2022/04/14 05:28:02;;;;;;;;;;;;;;;17.83;49.95;102060.25;5053557;28;19939;-76
2022/04/14 05:30:27;;;;;;;;;;;;;;;17.88;49.52;102065.81;5052810;28;19974;-76
2022/04/14 05:32:53;;;;;;;;;;;;;;;17.93;48.77;102076.75;5053044;28;20379;-75
2022/04/14 05:35:18;;;;;;;;;;;;;;;17.88;48.93;102071.25;5054175;28;19966;-73
2022/04/14 05:37:43;;;;;;;;;;;;;;;17.94;48.54;102073.00;5051729;28;20288;-75
2022/04/14 05:40:09;;;;;;;;;;;;;;;17.92;49.49;102077.00;5054133;28;20000;-75
2022/04/14 05:42:34;;;;;;;;;;;;;;;18.00;50.04;102072.00;5052721;28;19912;-77
2022/04/14 05:45:00;;;;;;;;;;;;;;;18.06;49.87;102073.72;5055444;28;20038;-78
2022/04/14 05:47:25;;;;;;;;;;;;;;;18.30;49.38;102066.25;5055390;28;19917;-77
2022/04/14 05:49:53;;;;;;;;;;;;;;;18.13;50.52;102074.41;5057254;28;19936;-78
2022/04/14 05:52:19;;;;;;;;;;;;;;;18.08;50.55;102070.78;5055529;28;19952;-80
2022/04/14 05:54:47;;;;;;;;;;;;;;;17.58;52.29;102080.69;5055188;28;19912;-76
2022/04/14 05:57:15;;;;;;;;;;;;;;;17.21;53.92;102080.16;5057414;28;19916;-77
2022/04/14 05:59:41;;;;;;;;;;;;;;;18.08;51.44;102081.66;5067602;28;19933;-78
2022/04/14 06:02:07;;;;;;;;;;;;;;;18.35;50.42;102082.69;5057124;28;20024;-76
2022/04/14 06:04:32;;;;;;;;;;;;;;;18.19;50.24;102086.22;5058201;28;20015;-77
2022/04/14 06:06:57;;;;;;;;;;;;;;;18.30;50.61;102090.75;5057036;28;19923;-78
2022/04/14 06:09:23;;;;;;;;;;;;;;;18.41;50.62;102092.59;5053588;28;19916;-77
2022/04/14 06:11:48;;;;;;;;;;;;;;;18.40;50.45;102096.38;5054210;28;19917;-75
2022/04/14 06:14:13;;;;;;;;;;;;;;;17.54;53.64;102100.19;5052158;28;20257;-76
2022/04/14 06:16:38;;;;;;;;;;;;;;;18.31;51.84;102095.97;5055495;28;19982;-73
2022/04/14 06:19:04;;;;;;;;;;;;;;;18.46;50.84;102100.03;5053015;28;19951;-77
2022/04/14 06:21:29;;;;;;;;;;;;;;;18.50;51.21;102104.75;5053874;28;19927;-75
2022/04/14 06:23:56;;;;;;;;;;;;;;;18.33;50.90;102110.16;5056631;28;20283;-76
2022/04/14 06:26:21;;;;;;;;;;;;;;;18.63;50.76;102099.00;5053181;28;19920;-76
2022/04/14 06:28:47;;;;;;;;;;;;;;;18.18;52.05;102100.91;5055165;28;19935;-76
2022/04/14 06:31:12;;;;;;;;;;;;;;;17.74;53.50;102105.22;5054428;28;19931;-76
2022/04/14 06:33:37;;;;;;;;;;;;;;;18.24;52.25;102108.88;5053009;28;19944;-77
2022/04/14 06:36:03;;;;;;;;;;;;;;;18.20;51.77;102113.16;5052520;28;19940;-75
2022/04/14 06:38:28;;;;;;;;;;;;;;;18.82;50.44;102114.00;5052861;28;19916;-76
2022/04/14 06:40:54;;;;;;;;;;;;;;;19.02;49.66;102114.31;5053150;28;19935;-76
2022/04/14 06:43:19;;;;;;;;;;;;;;;18.95;50.24;102107.34;5053891;28;19920;-76
2022/04/14 06:45:44;;;;;;;;;;;;;;;18.41;51.22;102117.09;5055283;28;20004;-75
2022/04/14 06:48:10;;;;;;;;;;;;;;;18.86;50.39;102111.59;5054824;28;20396;-76
2022/04/14 06:50:35;;;;;;;;;;;;;;;18.33;52.59;102110.16;5057761;28;20545;-76
2022/04/14 06:53:00;;;;;;;;;;;;;;;19.05;50.19;102121.13;5056138;28;19912;-75
2022/04/14 06:55:26;;;;;;;;;;;;;;;18.01;53.35;102119.91;5056901;28;19943;-75
2022/04/14 06:57:51;;;;;;;;;;;;;;;18.49;51.66;102121.34;5055897;28;20001;-75
2022/04/14 07:00:16;;;;;;;;;;;;;;;18.96;50.65;102122.66;5079934;28;19917;-76
2022/04/14 07:02:45;;;;;;;;;;;;;;;18.71;51.01;102119.53;5055343;28;19936;-75
2022/04/14 07:05:11;;;;;;;;;;;;;;;18.11;52.86;102121.97;5055953;28;19917;-76
2022/04/14 07:07:36;;;;;;;;;;;;;;;18.39;51.96;102130.13;5056495;28;19912;-76
2022/04/14 07:10:01;;;;;;;;;;;;;;;18.75;50.95;102126.94;5056285;28;19942;-77
2022/04/14 07:12:26;;;;;;;;;;;;;;;18.87;51.11;102133.13;5060354;28;20434;-77
2022/04/14 07:14:52;;;;;;;;;;;;;;;18.81;51.11;102123.22;5054782;28;19961;-75
2022/04/14 07:17:20;;;;;;;;;;;;;;;18.85;50.68;102131.75;5052482;28;19917;-75
2022/04/14 07:19:46;;;;;;;;;;;;;;;18.89;51.30;102132.88;5053239;28;20355;-76
2022/04/14 07:22:15;;;;;;;;;;;;;;;18.04;53.98;102137.63;5059469;28;20425;-77
2022/04/14 07:24:40;;;;;;;;;;;;;;;18.99;51.33;102136.59;5056885;28;19931;-76
2022/04/14 07:27:05;;;;;;;;;;;;;;;19.27;50.50;102141.94;5054145;28;19988;-73
2022/04/14 07:29:31;;;;;;;;;;;;;;;19.15;50.78;102124.84;5057113;28;20370;-77
2022/04/14 07:31:56;;;;;;;;;;;;;;;19.38;50.74;102131.19;5052439;28;19917;-76
2022/04/14 07:34:40;;;;;;;;;;;;;;;18.46;53.45;102133.53;5053458;28;19913;-77
2022/04/14 07:37:05;;;;;;;;;;;;;;;19.07;52.63;102138.91;5070325;28;19924;-76
2022/04/14 07:39:30;;;;;;;;;;;;;;;19.75;50.43;102129.50;5051091;28;19916;-76
2022/04/14 07:41:56;;;;;;;;;;;;;;;19.05;51.81;102140.22;5051297;28;20031;-76
2022/04/14 07:44:21;;;;;;;;;;;;;;;19.52;50.53;102136.00;5051598;28;19961;-75
2022/04/14 07:46:46;;;;;;;;;;;;;;;19.99;49.62;102139.03;5052459;28;19995;-78
2022/04/14 07:49:11;;;;;;;;;;;;;;;19.66;49.85;102142.75;5051316;28;19924;-75
2022/04/14 07:51:37;;;;;;;;;;;;;;;19.95;49.04;102138.72;5052450;28;20388;-76
2022/04/14 07:54:02;;;;;;;;;;;;;;;19.27;51.73;102146.53;5055936;28;20286;-75
2022/04/14 07:56:27;;;;;;;;;;;;;;;20.07;49.77;102139.41;5054435;28;19924;-74
2022/04/14 07:58:53;;;;;;;;;;;;;;;20.37;48.70;102138.94;5054257;28;19966;-75
2022/04/14 08:01:18;;;;;;;;;;;;;;;19.25;51.33;102143.25;5057056;28;19967;-77
2022/04/14 08:03:46;;;;;;;;;;;;;;;20.14;49.44;102145.50;5052097;28;19917;-77
2022/04/14 08:06:13;;;;;;;;;;;;;;;19.25;51.84;102152.25;5053457;28;19917;-76
2022/04/14 08:08:38;;;;;;;;;;;;;;;20.17;49.51;102149.59;5052035;28;20007;-77
2022/04/14 08:11:04;;;;;;;;;;;;;;;20.41;48.14;102142.78;5051965;28;19956;-75
2022/04/14 08:13:30;;;;;;;;;;;;;;;19.89;49.83;102144.41;5053539;28;20364;-76
2022/04/14 08:15:56;;;;;;;;;;;;;;;20.00;49.70;102149.72;5052109;28;20423;-77
2022/04/14 08:18:22;;;;;;;;;;;;;;;19.82;51.10;102146.47;5052304;28;20220;-76
2022/04/14 08:20:47;;;;;;;;;;;;;;;21.01;47.62;102145.25;5052410;28;20334;-76
2022/04/14 08:23:14;;;;;;;;;;;;;;;20.10;49.74;102149.84;5054038;28;19917;-76
2022/04/14 08:25:39;;;;;;;;;;;;;;;20.88;48.13;102145.66;5052291;28;19991;-76
2022/04/14 08:28:05;;;;;;;;;;;;;;;20.55;48.83;102145.91;5051707;28;19962;-77
2022/04/14 08:30:31;;;;;;;;;;;;;;;19.32;51.93;102146.59;5051947;28;19916;-75
2022/04/14 08:32:59;;;;;;;;;;;;;;;20.32;49.42;102148.97;5053641;28;20391;-77
2022/04/14 08:35:26;;;;;;;;;;;;;;;20.27;49.85;102152.47;5057496;28;19923;-78
2022/04/14 08:37:51;;;;;;;;;;;;;;;20.35;49.55;102148.47;5056975;28;19909;-77
2022/04/14 08:40:17;;;;;;;;;;;;;;;20.11;49.97;102158.81;5061062;28;19916;-76
2022/04/14 08:42:49;;;;;;;;;;;;;;;20.72;48.79;102157.53;5058525;28;19995;-77
2022/04/14 08:45:15;;;;;;;;;;;;;;;20.14;50.49;102161.06;5054611;28;19916;-77
2022/04/14 08:47:41;;;;;;;;;;;;;;;21.21;47.70;102163.69;5059831;28;20273;-78
2022/04/14 08:50:25;;;;;;;;;;;;;;;20.49;49.35;102160.59;5059874;28;19913;-78
2022/04/14 08:52:51;;;;;;;;;;;;;;;20.58;48.94;102162.59;5058015;28;20034;-76
2022/04/14 08:55:17;;;;;;;;;;;;;;;21.53;46.79;102157.03;5056209;28;19974;-77
2022/04/14 08:57:42;;;;;;;;;;;;;;;21.48;46.91;102148.00;5055501;28;19916;-77
2022/04/14 09:00:10;;;;;;;;;;;;;;;21.60;46.25;102151.34;5054301;28;19923;-76
2022/04/14 09:02:35;;;;;;;;;;;;;;;22.42;45.06;102146.69;5052081;28;19917;-76
2022/04/14 09:05:02;;;;;;;;;;;;;;;21.22;46.73;102144.28;5056776;28;19915;-76
2022/04/14 09:07:30;;;;;;;;;;;;;;;21.44;46.58;102142.25;5055093;28;20205;-76
2022/04/14 09:09:55;;;;;;;;;;;;;;;21.90;45.85;102145.16;5048273;28;20332;-78
2022/04/14 09:12:21;;;;;;;;;;;;;;;21.33;47.20;102143.25;5056876;28;19917;-77
2022/04/14 09:14:46;;;;;;;;;;;;;;;22.36;44.38;102136.00;5054091;28;19928;-75
2022/04/14 09:17:12;;;;;;;;;;;;;;;21.65;45.86;102137.66;5054396;28;20003;-77
2022/04/14 09:19:37;;;;;;;;;;;;;;;20.48;49.12;102137.94;5054325;28;19920;-77
2022/04/14 09:22:03;;;;;;;;;;;;;;;20.92;48.32;102138.56;5053827;28;19917;-76
2022/04/14 09:24:38;;;;;;;;;;;;;;;21.61;46.41;102133.81;5053523;28;19920;-76
2022/04/14 09:27:04;;;;;;;;;;;;;;;21.47;46.46;102130.75;5053135;28;19951;-76
2022/04/14 09:29:30;;;;;;;;;;;;;;;21.57;46.82;102130.81;5052116;28;19952;-75
2022/04/14 09:31:55;;;;;;;;;;;;;;;22.32;44.80;102129.41;5051862;28;19919;-76
2022/04/14 09:34:39;;;;;;;;;;;;;;;21.82;45.14;102132.84;5053969;28;19932;-76
2022/04/14 09:37:08;;;;;;;;;;;;;;;21.19;47.35;102141.28;5049638;28;20023;-77
2022/04/14 09:39:49;;;;;;;;;;;;;;;21.86;44.91;102141.34;5053522;28;19913;-77
2022/04/14 09:42:15;;;;;;;;;;;;;;;22.01;44.24;102144.97;5053804;28;20308;-77
2022/04/14 09:44:40;;;;;;;;;;;;;;;22.75;41.70;102141.78;5053702;28;19916;-76
2022/04/14 09:47:05;;;;;;;;;;;;;;;23.16;40.81;102138.72;5054487;28;19920;-73
2022/04/14 09:49:30;;;;;;;;;;;;;;;22.03;43.85;102139.22;5053402;28;19906;-74
2022/04/14 09:51:56;;;;;;;;;;;;;;;22.32;42.24;102143.94;5054437;28;19916;-75
2022/04/14 09:54:28;;;;;;;;;;;;;;;22.19;42.17;102155.38;5054116;28;19912;-77
2022/04/14 09:56:55;;;;;;;;;;;;;;;21.88;44.66;102152.84;5054838;28;19956;-76
2022/04/14 09:59:29;;;;;;;;;;;;;;;22.57;41.79;102148.63;5055790;28;19935;-77
2022/04/14 10:02:13;;;;;;;;;;;;;;;22.95;42.04;102152.75;5058865;28;19920;-77
2022/04/14 10:04:40;;;;;;;;;;;;;;;23.49;41.08;102148.25;5054254;28;19917;-76
2022/04/14 10:07:13;;;;;;;;;;;;;;;23.55;39.69;102150.72;5052300;28;19920;-76
2022/04/14 10:09:40;;;;;;;;;;;;;;;22.72;41.87;102154.13;5053617;28;20011;-78
2022/04/14 10:12:25;;;;;;;;;;;;;;;23.49;39.99;102161.97;5053571;28;19917;-76
2022/04/14 10:14:56;;;;;;;;;;;;;;;23.10;41.35;102167.25;5053156;28;19912;-77
2022/04/14 10:17:25;;;;;;;;;;;;;;;23.26;40.11;102162.56;5052053;28;19916;-77
2022/04/14 10:19:51;;;;;;;;;;;;;;;24.34;38.57;102161.59;5053291;28;19909;-76
2022/04/14 10:22:16;;;;;;;;;;;;;;;24.34;37.95;102149.78;5053416;28;19982;-77
2022/04/14 10:24:42;;;;;;;;;;;;;;;23.95;39.88;102146.16;5051863;28;19921;-77
2022/04/14 10:27:09;;;;;;;;;;;;;;;22.73;40.88;102146.72;5052231;28;19916;-77
2022/04/14 10:29:36;;;;;;;;;;;;;;;21.80;43.58;102149.53;5053943;28;19917;-76
2022/04/14 10:32:01;;;;;;;;;;;;;;;20.91;45.80;102150.59;5052860;28;19958;-75
2022/04/14 10:34:46;;;;;;;;;;;;;;;21.58;44.91;102159.78;5054750;28;20010;-75
2022/04/14 10:37:15;;;;;;;;;;;;;;;22.88;42.13;102155.75;5054116;28;19923;-75
2022/04/14 10:39:43;;;;;;;;;;;;;;;23.09;40.44;102173.03;5054414;28;19995;-75
2022/04/14 10:42:09;;;;;;;;;;;;;;;23.11;39.89;102166.19;5053959;28;19947;-75
2022/04/14 10:44:51;;;;;;;;;;;;;;;23.33;40.02;102174.13;5054313;28;20396;-75
2022/04/14 10:47:33;;;;;;;;;;;;;;;22.44;40.86;102171.91;5053908;28;19964;-75
2022/04/14 10:49:59;;;;;;;;;;;;;;;22.55;40.41;102159.84;5052171;28;19920;-74
2022/04/14 10:52:25;;;;;;;;;;;;;;;22.65;39.91;102167.28;5054501;28;19913;-78
2022/04/14 10:54:54;;;;;;;;;;;;;;;22.81;39.91;102168.94;5054424;28;19916;-74
2022/04/14 10:57:35;;;;;;;;;;;;;;;22.98;38.50;102171.38;5053822;28;19921;-74
2022/04/14 11:00:02;;;;;;;;;;;;;;;21.99;41.03;102158.09;5053523;28;19927;-74
2022/04/14 11:02:47;;;;;;;;;;;;;;;23.46;38.00;102163.38;5053509;28;19947;-76
2022/04/14 11:05:36;;;;;;;;;;;;;;;23.41;39.01;102177.09;5053477;28;19916;-76
2022/04/14 11:08:20;;;;;;;;;;;;;;;23.17;38.37;102186.19;5053666;28;20019;-73
2022/04/14 11:10:53;;;;;;;;;;;;;;;23.36;37.81;102168.91;5054575;28;19908;-79
2022/04/14 11:13:18;;;;;;;;;;;;;;;23.78;36.39;102165.75;5054402;28;20287;-80
2022/04/14 11:15:43;;;;;;;;;;;;;;;23.65;36.00;102171.81;5053448;28;19917;-78
2022/04/14 11:18:08;;;;;;;;;;;;;;;23.51;37.09;102182.56;5053543;28;20435;-79
2022/04/14 11:20:34;;;;;;;;;;;;;;;24.21;36.78;102177.91;5054988;28;19913;-80
2022/04/14 11:23:11;;;;;;;;;;;;;;;22.45;38.80;102172.69;5053927;28;19974;-76
2022/04/14 11:25:43;;;;;;;;;;;;;;;24.28;36.73;102164.66;5052671;28;19916;-74
2022/04/14 11:28:22;;;;;;;;;;;;;;;24.15;36.34;102166.13;5052836;28;19917;-76
2022/04/14 11:30:49;;;;;;;;;;;;;;;24.31;35.41;102166.88;5052772;28;19991;-76
2022/04/14 11:36:13;;;;;;;;;;;;;;;23.27;36.87;102170.50;5053291;28;19919;-75
2022/04/14 11:38:57;;;;;;;;;;;;;;;23.94;36.04;102164.53;5052407;28;19987;-76
2022/04/14 11:41:37;;;;;;;;;;;;;;;22.93;36.78;102165.91;5052849;28;19924;-76
2022/04/14 11:44:12;;;;;;;;;;;;;;;24.34;34.85;102169.84;5053030;28;19913;-75
2022/04/14 11:46:39;;;;;;;;;;;;;;;24.33;34.45;102178.38;5051236;28;20011;-76
2022/04/14 11:49:05;;;;;;;;;;;;;;;24.52;34.20;102173.84;5052689;28;19913;-77
2022/04/14 11:51:30;;;;;;;;;;;;;;;23.59;35.81;102172.94;5053056;28;19974;-79
2022/04/14 11:53:57;;;;;;;;;;;;;;;24.17;34.48;102160.34;5055605;28;19921;-78
2022/04/14 11:56:23;;;;;;;;;;;;;;;23.81;34.73;102173.41;5053181;28;19966;-77
2022/04/14 11:58:49;;;;;;;;;;;;;;;24.57;33.22;102173.81;5052813;28;19917;-76
2022/04/14 12:01:14;;;;;;;;;;;;;;;24.23;34.59;102167.47;5052502;28;19928;-79
2022/04/14 12:03:41;;;;;;;;;;;;;;;25.24;31.99;102178.47;5053089;28;19920;-77
2022/04/14 12:06:08;;;;;;;;;;;;;;;24.35;33.16;102176.97;5053234;28;19924;-75
2022/04/14 12:08:33;;;;;;;;;;;;;;;23.02;35.21;102181.53;5054007;28;20008;-75
2022/04/14 12:11:02;;;;;;;;;;;;;;;23.82;33.73;102182.47;5062106;28;20011;-77
2022/04/14 12:13:28;;;;;;;;;;;;;;;24.57;33.60;102175.75;5065917;28;19903;-76
2022/04/14 12:15:59;;;;;;;;;;;;;;;24.14;34.40;102189.19;5060246;28;19917;-75
2022/04/14 12:18:25;;;;;;;;;;;;;;;24.18;34.25;102186.69;5059817;28;19917;-77
2022/04/14 12:20:50;;;;;;;;;;;;;;;23.70;35.60;102179.22;5058675;28;19917;-77
2022/04/14 12:23:15;;;;;;;;;;;;;;;24.42;34.31;102180.25;5058806;28;19920;-77
2022/04/14 12:25:41;;;;;;;;;;;;;;;24.51;34.67;102188.69;5059989;28;19916;-78
2022/04/14 12:28:06;;;;;;;;;;;;;;;25.34;32.59;102177.53;5057469;28;19924;-77
2022/04/14 12:30:32;;;;;;;;;;;;;;;24.25;35.21;102179.00;5056885;28;19924;-77
2022/04/14 12:33:04;;;;;;;;;;;;;;;23.43;36.47;102180.38;5057100;28;19917;-77
2022/04/14 12:35:30;;;;;;;;;;;;;;;23.20;37.14;102183.69;5057946;28;19993;-75
2022/04/14 12:38:10;;;;;;;;;;;;;;;24.29;35.36;102177.31;5056685;28;20347;-76
2022/04/14 12:40:35;;;;;;;;;;;;;;;23.61;36.96;102186.38;5056592;28;19964;-75